This is the latest recevied weather packets stored in our database for station/object N2VSB-13. If no packets are shown the sender has not sent any weather packets the latest 10 day(s).
| Time | Temp. | Humidity | Pressure | Rain* | Wind** | Luminosity | Snow |
|---|---|---|---|---|---|---|---|
| 1777608327 | 8.33° C | 74% | 1010 hPa | 0 mm | - | 0 W/m² | - |
| 1777605348 | 8.89° C | 75% | 1010.3 hPa | 0 mm | - | 0 W/m² | - |
| 1777604718 | 8.89° C | 75% | 1010.3 hPa | 0 mm | - | 0 W/m² | - |
| 1777602328 | 8.33° C | 74% | 1010.1 hPa | 0 mm | - | 0 W/m² | - |
| 1777601129 | 8.89° C | 74% | 1010.1 hPa | 0 mm | - | 0 W/m² | - |
| 1777596917 | 10° C | 72% | 1009.3 hPa | 0 mm | - | 0 W/m² | - |
| 1777596340 | 10° C | 72% | 1009.1 hPa | 0 mm | - | 0 W/m² | - |
| 1777587937 | 12.78° C | 68% | 1007.1 hPa | 0 mm | - | 27 W/m² | - |
| 1777586117 | 12.78° C | 69% | 1006.8 hPa | 0 mm | - | 70 W/m² | - |
| 1777582518 | 13.89° C | 66% | 1006.2 hPa | 0 mm | - | 148 W/m² | - |
| 1777575917 | 14.44° C | 72% | 1005.9 hPa | 0 mm | - | 244 W/m² | - |
| 1777572325 | 13.33° C | 74% | 1006.1 hPa | 0 mm | - | 279 W/m² | - |
| 1777565723 | 11.67° C | 85% | 1006.8 hPa | 0 mm | - | 274 W/m² | - |
| 1777564517 | 11.11° C | 91% | 1006.9 hPa | 0 mm | - | 274 W/m² | - |
| 1777563317 | 10.56° C | 93% | 1006.8 hPa | 0 mm | - | 354 W/m² | - |
| 1777554328 | 9.44° C | 99% | 1006.8 hPa | 0 mm | - | 23 W/m² | - |
| 1777547118 | 9.44° C | 98% | 1006.4 hPa | 0 mm | - | 24 W/m² | - |
| 1777542916 | 8.89° C | 99% | 1005.9 hPa | 0 mm | - | 1 W/m² | - |
| 1777536318 | 8.89° C | 99% | 1006.5 hPa | 0.51 mm | - | 0 W/m² | - |
| 1777531539 | 8.89° C | 98% | 1006.9 hPa | 3.05 mm | - | 0 W/m² | - |
| 1777530920 | 9.44° C | 98% | 1006.9 hPa | 2.29 mm | - | 0 W/m² | - |
| 1777524918 | 10° C | 96% | 1007.3 hPa | 4.83 mm | - | 0 W/m² | - |
| 1777518917 | 11.67° C | 87% | 1008 hPa | 1.52 mm | - | 0 W/m² | - |
| 1777517120 | 13.89° C | 75% | 1008 hPa | 0.76 mm | - | 0 W/m² | - |
| 1777504518 | 17.78° C | 60% | 1007.4 hPa | 0 mm | - | 15 W/m² | - |
* Rain latest hour (hover to see other rain measurements)
** Current wind speed in m/s (hover to see current wind gust speed)